sensor_id;sensor_type;location;lat;lon;timestamp;P1;durP1;ratioP1;P2;durP2;ratioP2
9547;SDS011;4812;51.992;8.648;2022-07-29T00:00:58;15.53;;;14.50;;
9547;SDS011;4812;51.992;8.648;2022-07-29T00:03:26;15.67;;;14.53;;
9547;SDS011;4812;51.992;8.648;2022-07-29T00:05:54;15.63;;;14.53;;
9547;SDS011;4812;51.992;8.648;2022-07-29T00:08:22;15.63;;;14.50;;
9547;SDS011;4812;51.992;8.648;2022-07-29T00:10:50;15.17;;;14.13;;
9547;SDS011;4812;51.992;8.648;2022-07-29T00:13:18;15.53;;;14.43;;
9547;SDS011;4812;51.992;8.648;2022-07-29T00:15:59;15.50;;;14.37;;
9547;SDS011;4812;51.992;8.648;2022-07-29T00:18:30;15.37;;;14.47;;
9547;SDS011;4812;51.992;8.648;2022-07-29T00:20:58;15.13;;;14.23;;
9547;SDS011;4812;51.992;8.648;2022-07-29T00:23:25;15.87;;;14.50;;
9547;SDS011;4812;51.992;8.648;2022-07-29T00:25:53;15.40;;;14.40;;
9547;SDS011;4812;51.992;8.648;2022-07-29T00:28:20;15.17;;;14.17;;
9547;SDS011;4812;51.992;8.648;2022-07-29T00:30:48;15.00;;;13.90;;
9547;SDS011;4812;51.992;8.648;2022-07-29T00:33:17;16.67;;;14.40;;
9547;SDS011;4812;51.992;8.648;2022-07-29T00:35:44;16.33;;;15.03;;
9547;SDS011;4812;51.992;8.648;2022-07-29T00:38:11;15.37;;;14.33;;
9547;SDS011;4812;51.992;8.648;2022-07-29T00:40:39;15.10;;;13.90;;
9547;SDS011;4812;51.992;8.648;2022-07-29T00:43:09;14.90;;;13.87;;
9547;SDS011;4812;51.992;8.648;2022-07-29T00:45:38;14.63;;;13.73;;
9547;SDS011;4812;51.992;8.648;2022-07-29T00:48:06;14.83;;;13.67;;
9547;SDS011;4812;51.992;8.648;2022-07-29T00:50:36;15.80;;;14.60;;
9547;SDS011;4812;51.992;8.648;2022-07-29T00:53:05;15.07;;;14.03;;
9547;SDS011;4812;51.992;8.648;2022-07-29T00:55:34;14.83;;;13.93;;
9547;SDS011;4812;51.992;8.648;2022-07-29T00:58:02;13.97;;;13.13;;
9547;SDS011;4812;51.992;8.648;2022-07-29T01:00:30;14.67;;;13.70;;
9547;SDS011;4812;51.992;8.648;2022-07-29T01:02:58;14.53;;;13.47;;
9547;SDS011;4812;51.992;8.648;2022-07-29T01:05:27;14.20;;;13.30;;
9547;SDS011;4812;51.992;8.648;2022-07-29T01:08:16;14.87;;;13.83;;
9547;SDS011;4812;51.992;8.648;2022-07-29T01:10:44;15.50;;;14.50;;
9547;SDS011;4812;51.992;8.648;2022-07-29T01:13:12;15.43;;;14.27;;
9547;SDS011;4812;51.992;8.648;2022-07-29T01:15:43;15.30;;;14.20;;
9547;SDS011;4812;51.992;8.648;2022-07-29T01:18:16;16.50;;;15.00;;
9547;SDS011;4812;51.992;8.648;2022-07-29T01:20:55;16.07;;;14.90;;
9547;SDS011;4812;51.992;8.648;2022-07-29T01:23:39;16.07;;;14.97;;
9547;SDS011;4812;51.992;8.648;2022-07-29T01:26:20;16.83;;;15.30;;
9547;SDS011;4812;51.992;8.648;2022-07-29T01:29:08;15.90;;;14.90;;
9547;SDS011;4812;51.992;8.648;2022-07-29T01:31:41;16.47;;;15.30;;
9547;SDS011;4812;51.992;8.648;2022-07-29T01:34:27;16.20;;;15.00;;
9547;SDS011;4812;51.992;8.648;2022-07-29T01:36:59;15.87;;;14.77;;
9547;SDS011;4812;51.992;8.648;2022-07-29T01:39:33;16.40;;;15.20;;
9547;SDS011;4812;51.992;8.648;2022-07-29T01:42:05;15.77;;;14.67;;
9547;SDS011;4812;51.992;8.648;2022-07-29T01:44:40;15.07;;;14.07;;
9547;SDS011;4812;51.992;8.648;2022-07-29T01:47:10;14.87;;;13.77;;
9547;SDS011;4812;51.992;8.648;2022-07-29T01:49:43;14.77;;;13.77;;
9547;SDS011;4812;51.992;8.648;2022-07-29T01:52:15;14.90;;;14.00;;
9547;SDS011;4812;51.992;8.648;2022-07-29T01:54:49;15.17;;;14.07;;
9547;SDS011;4812;51.992;8.648;2022-07-29T01:57:20;15.27;;;14.00;;
9547;SDS011;4812;51.992;8.648;2022-07-29T01:59:52;15.07;;;14.00;;
9547;SDS011;4812;51.992;8.648;2022-07-29T02:02:20;15.77;;;14.50;;
9547;SDS011;4812;51.992;8.648;2022-07-29T02:04:49;14.67;;;13.77;;
9547;SDS011;4812;51.992;8.648;2022-07-29T02:07:18;14.67;;;13.60;;
9547;SDS011;4812;51.992;8.648;2022-07-29T02:09:47;14.67;;;13.67;;
9547;SDS011;4812;51.992;8.648;2022-07-29T02:12:17;14.77;;;13.87;;
9547;SDS011;4812;51.992;8.648;2022-07-29T02:14:47;15.07;;;13.80;;
9547;SDS011;4812;51.992;8.648;2022-07-29T02:17:19;14.90;;;13.90;;
9547;SDS011;4812;51.992;8.648;2022-07-29T02:19:48;14.93;;;13.70;;
9547;SDS011;4812;51.992;8.648;2022-07-29T02:22:18;14.60;;;13.50;;
9547;SDS011;4812;51.992;8.648;2022-07-29T02:24:46;15.27;;;14.07;;
9547;SDS011;4812;51.992;8.648;2022-07-29T02:27:18;15.00;;;13.73;;
9547;SDS011;4812;51.992;8.648;2022-07-29T02:29:49;14.05;;;13.00;;
9547;SDS011;4812;51.992;8.648;2022-07-29T02:32:19;14.80;;;13.80;;
9547;SDS011;4812;51.992;8.648;2022-07-29T02:34:49;15.47;;;14.37;;
9547;SDS011;4812;51.992;8.648;2022-07-29T02:37:18;15.40;;;14.27;;
9547;SDS011;4812;51.992;8.648;2022-07-29T02:39:46;16.20;;;14.90;;
9547;SDS011;4812;51.992;8.648;2022-07-29T02:42:16;15.63;;;14.63;;
9547;SDS011;4812;51.992;8.648;2022-07-29T02:44:44;15.20;;;14.10;;
9547;SDS011;4812;51.992;8.648;2022-07-29T02:47:13;14.67;;;13.50;;
9547;SDS011;4812;51.992;8.648;2022-07-29T02:49:52;14.70;;;13.60;;
9547;SDS011;4812;51.992;8.648;2022-07-29T02:52:22;14.60;;;13.50;;
9547;SDS011;4812;51.992;8.648;2022-07-29T02:54:55;15.37;;;13.93;;
9547;SDS011;4812;51.992;8.648;2022-07-29T02:57:27;15.03;;;13.90;;
9547;SDS011;4812;51.992;8.648;2022-07-29T02:59:57;14.93;;;13.93;;
9547;SDS011;4812;51.992;8.648;2022-07-29T03:02:26;15.80;;;14.50;;
9547;SDS011;4812;51.992;8.648;2022-07-29T03:04:58;15.73;;;14.60;;
9547;SDS011;4812;51.992;8.648;2022-07-29T03:07:27;15.57;;;14.30;;
9547;SDS011;4812;51.992;8.648;2022-07-29T03:09:55;16.33;;;14.90;;
9547;SDS011;4812;51.992;8.648;2022-07-29T03:12:24;16.03;;;14.80;;
9547;SDS011;4812;51.992;8.648;2022-07-29T03:14:52;15.73;;;14.60;;
9547;SDS011;4812;51.992;8.648;2022-07-29T03:17:20;16.30;;;14.83;;
9547;SDS011;4812;51.992;8.648;2022-07-29T03:19:48;16.07;;;14.50;;
9547;SDS011;4812;51.992;8.648;2022-07-29T03:22:17;15.90;;;14.60;;
9547;SDS011;4812;51.992;8.648;2022-07-29T03:24:45;15.50;;;14.40;;
9547;SDS011;4812;51.992;8.648;2022-07-29T03:27:12;15.20;;;14.10;;
9547;SDS011;4812;51.992;8.648;2022-07-29T03:29:40;14.87;;;13.77;;
9547;SDS011;4812;51.992;8.648;2022-07-29T03:32:15;15.03;;;14.00;;
9547;SDS011;4812;51.992;8.648;2022-07-29T03:34:50;14.70;;;13.70;;
9547;SDS011;4812;51.992;8.648;2022-07-29T03:37:19;14.73;;;13.47;;
9547;SDS011;4812;51.992;8.648;2022-07-29T03:39:47;15.43;;;14.13;;
9547;SDS011;4812;51.992;8.648;2022-07-29T03:42:15;15.70;;;14.60;;
9547;SDS011;4812;51.992;8.648;2022-07-29T03:44:44;14.97;;;14.00;;
9547;SDS011;4812;51.992;8.648;2022-07-29T03:47:13;15.27;;;14.17;;
9547;SDS011;4812;51.992;8.648;2022-07-29T03:49:42;15.60;;;14.50;;
9547;SDS011;4812;51.992;8.648;2022-07-29T03:52:11;15.37;;;14.47;;
9547;SDS011;4812;51.992;8.648;2022-07-29T03:54:41;15.87;;;14.67;;
9547;SDS011;4812;51.992;8.648;2022-07-29T03:57:09;15.67;;;14.47;;
9547;SDS011;4812;51.992;8.648;2022-07-29T03:59:37;15.80;;;14.70;;
9547;SDS011;4812;51.992;8.648;2022-07-29T04:02:07;16.37;;;15.23;;
9547;SDS011;4812;51.992;8.648;2022-07-29T04:04:36;16.00;;;14.90;;
9547;SDS011;4812;51.992;8.648;2022-07-29T04:07:04;17.20;;;15.57;;
9547;SDS011;4812;51.992;8.648;2022-07-29T04:09:32;15.30;;;14.20;;
9547;SDS011;4812;51.992;8.648;2022-07-29T04:12:01;15.40;;;14.40;;
9547;SDS011;4812;51.992;8.648;2022-07-29T04:14:30;15.53;;;14.33;;
9547;SDS011;4812;51.992;8.648;2022-07-29T04:16:58;15.23;;;14.10;;
9547;SDS011;4812;51.992;8.648;2022-07-29T04:19:25;15.60;;;14.50;;
9547;SDS011;4812;51.992;8.648;2022-07-29T04:21:53;16.07;;;14.80;;
9547;SDS011;4812;51.992;8.648;2022-07-29T04:24:21;16.13;;;14.70;;
9547;SDS011;4812;51.992;8.648;2022-07-29T04:26:48;16.13;;;14.70;;
9547;SDS011;4812;51.992;8.648;2022-07-29T04:29:17;15.70;;;14.50;;
9547;SDS011;4812;51.992;8.648;2022-07-29T04:31:46;15.83;;;14.30;;
9547;SDS011;4812;51.992;8.648;2022-07-29T04:34:13;15.77;;;14.57;;
9547;SDS011;4812;51.992;8.648;2022-07-29T04:36:41;14.77;;;13.67;;
9547;SDS011;4812;51.992;8.648;2022-07-29T04:39:09;14.20;;;13.10;;
9547;SDS011;4812;51.992;8.648;2022-07-29T04:41:37;14.23;;;13.10;;
9547;SDS011;4812;51.992;8.648;2022-07-29T04:44:05;14.40;;;13.30;;
9547;SDS011;4812;51.992;8.648;2022-07-29T04:46:35;14.80;;;13.40;;
9547;SDS011;4812;51.992;8.648;2022-07-29T04:49:03;14.80;;;13.60;;
9547;SDS011;4812;51.992;8.648;2022-07-29T04:51:31;15.20;;;13.90;;
9547;SDS011;4812;51.992;8.648;2022-07-29T04:53:58;14.63;;;13.47;;
9547;SDS011;4812;51.992;8.648;2022-07-29T04:56:26;13.40;;;12.40;;
9547;SDS011;4812;51.992;8.648;2022-07-29T04:58:55;14.27;;;13.10;;
9547;SDS011;4812;51.992;8.648;2022-07-29T05:01:23;13.87;;;12.67;;
9547;SDS011;4812;51.992;8.648;2022-07-29T05:03:52;13.27;;;12.47;;
9547;SDS011;4812;51.992;8.648;2022-07-29T05:06:25;13.87;;;12.50;;
9547;SDS011;4812;51.992;8.648;2022-07-29T05:08:53;13.53;;;12.60;;
9547;SDS011;4812;51.992;8.648;2022-07-29T05:11:20;13.40;;;12.40;;
9547;SDS011;4812;51.992;8.648;2022-07-29T05:13:55;13.57;;;12.67;;
9547;SDS011;4812;51.992;8.648;2022-07-29T05:16:25;14.00;;;12.87;;
9547;SDS011;4812;51.992;8.648;2022-07-29T05:18:54;14.57;;;13.47;;
9547;SDS011;4812;51.992;8.648;2022-07-29T05:21:22;14.37;;;13.27;;
9547;SDS011;4812;51.992;8.648;2022-07-29T05:23:49;14.93;;;13.70;;
9547;SDS011;4812;51.992;8.648;2022-07-29T05:26:17;14.90;;;13.90;;
9547;SDS011;4812;51.992;8.648;2022-07-29T05:28:45;16.13;;;14.67;;
9547;SDS011;4812;51.992;8.648;2022-07-29T05:31:14;15.23;;;14.17;;
9547;SDS011;4812;51.992;8.648;2022-07-29T05:33:42;16.27;;;14.97;;
9547;SDS011;4812;51.992;8.648;2022-07-29T05:36:11;16.30;;;15.10;;
9547;SDS011;4812;51.992;8.648;2022-07-29T05:38:39;16.17;;;14.97;;
9547;SDS011;4812;51.992;8.648;2022-07-29T05:41:06;17.40;;;15.90;;
9547;SDS011;4812;51.992;8.648;2022-07-29T05:43:34;16.70;;;15.40;;
9547;SDS011;4812;51.992;8.648;2022-07-29T05:46:01;17.07;;;15.87;;
9547;SDS011;4812;51.992;8.648;2022-07-29T05:48:29;17.57;;;16.27;;
9547;SDS011;4812;51.992;8.648;2022-07-29T05:50:56;17.37;;;15.80;;
9547;SDS011;4812;51.992;8.648;2022-07-29T05:53:25;17.30;;;16.10;;
9547;SDS011;4812;51.992;8.648;2022-07-29T05:55:53;17.97;;;16.27;;
9547;SDS011;4812;51.992;8.648;2022-07-29T05:58:21;17.33;;;16.03;;
9547;SDS011;4812;51.992;8.648;2022-07-29T06:00:48;17.67;;;16.27;;
9547;SDS011;4812;51.992;8.648;2022-07-29T06:03:16;17.80;;;16.50;;
9547;SDS011;4812;51.992;8.648;2022-07-29T06:05:43;18.63;;;16.93;;
9547;SDS011;4812;51.992;8.648;2022-07-29T06:08:11;18.43;;;16.60;;
9547;SDS011;4812;51.992;8.648;2022-07-29T06:10:40;18.27;;;16.77;;
9547;SDS011;4812;51.992;8.648;2022-07-29T06:13:07;17.87;;;16.53;;
9547;SDS011;4812;51.992;8.648;2022-07-29T06:15:35;18.37;;;16.97;;
9547;SDS011;4812;51.992;8.648;2022-07-29T06:18:03;19.03;;;17.73;;
9547;SDS011;4812;51.992;8.648;2022-07-29T06:20:33;19.67;;;18.17;;
9547;SDS011;4812;51.992;8.648;2022-07-29T06:23:01;19.03;;;17.60;;
9547;SDS011;4812;51.992;8.648;2022-07-29T06:25:30;19.37;;;17.97;;
9547;SDS011;4812;51.992;8.648;2022-07-29T06:28:02;20.17;;;18.30;;
9547;SDS011;4812;51.992;8.648;2022-07-29T06:30:30;19.27;;;17.93;;
9547;SDS011;4812;51.992;8.648;2022-07-29T06:32:57;19.90;;;18.40;;
9547;SDS011;4812;51.992;8.648;2022-07-29T06:35:26;19.80;;;18.50;;
9547;SDS011;4812;51.992;8.648;2022-07-29T06:38:07;20.20;;;18.60;;
9547;SDS011;4812;51.992;8.648;2022-07-29T06:40:55;19.80;;;18.30;;
9547;SDS011;4812;51.992;8.648;2022-07-29T06:43:31;19.80;;;18.40;;
9547;SDS011;4812;51.992;8.648;2022-07-29T06:46:17;20.70;;;18.80;;
9547;SDS011;4812;51.992;8.648;2022-07-29T06:48:46;21.00;;;19.20;;
9547;SDS011;4812;51.992;8.648;2022-07-29T06:51:14;20.43;;;18.73;;
9547;SDS011;4812;51.992;8.648;2022-07-29T06:53:48;20.43;;;18.80;;
9547;SDS011;4812;51.992;8.648;2022-07-29T06:56:28;20.57;;;19.00;;
9547;SDS011;4812;51.992;8.648;2022-07-29T06:58:57;20.93;;;19.43;;
9547;SDS011;4812;51.992;8.648;2022-07-29T07:01:26;19.67;;;18.13;;
9547;SDS011;4812;51.992;8.648;2022-07-29T07:03:54;20.43;;;18.83;;
9547;SDS011;4812;51.992;8.648;2022-07-29T07:06:22;20.27;;;18.77;;
9547;SDS011;4812;51.992;8.648;2022-07-29T07:08:49;20.00;;;18.53;;
9547;SDS011;4812;51.992;8.648;2022-07-29T07:11:17;20.47;;;18.73;;
9547;SDS011;4812;51.992;8.648;2022-07-29T07:13:45;20.10;;;18.60;;
9547;SDS011;4812;51.992;8.648;2022-07-29T07:16:14;19.40;;;18.10;;
9547;SDS011;4812;51.992;8.648;2022-07-29T07:18:42;20.37;;;18.73;;
9547;SDS011;4812;51.992;8.648;2022-07-29T07:21:11;20.20;;;18.70;;
9547;SDS011;4812;51.992;8.648;2022-07-29T07:23:44;21.27;;;19.10;;
9547;SDS011;4812;51.992;8.648;2022-07-29T07:26:12;21.63;;;19.60;;
9547;SDS011;4812;51.992;8.648;2022-07-29T07:28:40;21.70;;;19.70;;
9547;SDS011;4812;51.992;8.648;2022-07-29T07:31:09;20.73;;;19.23;;
9547;SDS011;4812;51.992;8.648;2022-07-29T07:33:39;20.60;;;19.10;;
9547;SDS011;4812;51.992;8.648;2022-07-29T07:36:06;21.13;;;19.43;;
9547;SDS011;4812;51.992;8.648;2022-07-29T07:38:34;20.63;;;19.03;;
9547;SDS011;4812;51.992;8.648;2022-07-29T07:41:02;20.60;;;19.10;;
9547;SDS011;4812;51.992;8.648;2022-07-29T07:43:30;20.43;;;19.03;;
9547;SDS011;4812;51.992;8.648;2022-07-29T07:45:57;20.37;;;18.97;;
9547;SDS011;4812;51.992;8.648;2022-07-29T07:48:25;20.00;;;18.70;;
9547;SDS011;4812;51.992;8.648;2022-07-29T07:50:54;20.60;;;19.20;;
9547;SDS011;4812;51.992;8.648;2022-07-29T07:53:22;21.37;;;19.60;;
9547;SDS011;4812;51.992;8.648;2022-07-29T07:55:49;20.53;;;19.03;;
9547;SDS011;4812;51.992;8.648;2022-07-29T07:58:37;20.40;;;18.83;;
9547;SDS011;4812;51.992;8.648;2022-07-29T08:01:06;20.60;;;18.97;;
9547;SDS011;4812;51.992;8.648;2022-07-29T08:03:34;20.30;;;18.87;;
9547;SDS011;4812;51.992;8.648;2022-07-29T08:06:03;20.48;;;18.98;;
9547;SDS011;4812;51.992;8.648;2022-07-29T08:08:31;21.20;;;19.40;;
9547;SDS011;4812;51.992;8.648;2022-07-29T08:10:59;20.52;;;18.92;;
9547;SDS011;4812;51.992;8.648;2022-07-29T08:13:34;20.98;;;19.33;;
9547;SDS011;4812;51.992;8.648;2022-07-29T08:16:03;20.83;;;19.20;;
9547;SDS011;4812;51.992;8.648;2022-07-29T08:18:39;21.47;;;19.87;;
9547;SDS011;4812;51.992;8.648;2022-07-29T08:21:10;21.07;;;19.53;;
9547;SDS011;4812;51.992;8.648;2022-07-29T08:23:40;20.70;;;19.33;;
9547;SDS011;4812;51.992;8.648;2022-07-29T08:26:18;21.30;;;19.73;;
9547;SDS011;4812;51.992;8.648;2022-07-29T08:28:46;21.20;;;19.60;;
9547;SDS011;4812;51.992;8.648;2022-07-29T08:31:16;21.80;;;20.17;;
9547;SDS011;4812;51.992;8.648;2022-07-29T08:33:44;21.63;;;19.90;;
9547;SDS011;4812;51.992;8.648;2022-07-29T08:36:13;21.13;;;19.63;;
9547;SDS011;4812;51.992;8.648;2022-07-29T08:38:41;20.10;;;18.70;;
9547;SDS011;4812;51.992;8.648;2022-07-29T08:41:08;16.63;;;15.47;;
9547;SDS011;4812;51.992;8.648;2022-07-29T08:43:36;16.27;;;15.27;;
9547;SDS011;4812;51.992;8.648;2022-07-29T08:46:05;15.80;;;14.80;;
9547;SDS011;4812;51.992;8.648;2022-07-29T08:48:32;15.50;;;14.50;;
9547;SDS011;4812;51.992;8.648;2022-07-29T08:51:01;16.60;;;15.40;;
9547;SDS011;4812;51.992;8.648;2022-07-29T08:53:31;15.83;;;14.77;;
9547;SDS011;4812;51.992;8.648;2022-07-29T08:55:59;15.90;;;14.70;;
9547;SDS011;4812;51.992;8.648;2022-07-29T08:58:30;15.67;;;14.60;;
9547;SDS011;4812;51.992;8.648;2022-07-29T09:01:03;15.55;;;14.38;;
9547;SDS011;4812;51.992;8.648;2022-07-29T09:03:34;15.73;;;14.53;;
9547;SDS011;4812;51.992;8.648;2022-07-29T09:06:05;15.40;;;14.50;;
9547;SDS011;4812;51.992;8.648;2022-07-29T09:08:34;16.10;;;15.00;;
9547;SDS011;4812;51.992;8.648;2022-07-29T09:11:01;16.13;;;15.00;;
9547;SDS011;4812;51.992;8.648;2022-07-29T09:13:31;17.00;;;15.67;;
9547;SDS011;4812;51.992;8.648;2022-07-29T09:15:58;16.73;;;15.53;;
9547;SDS011;4812;51.992;8.648;2022-07-29T09:18:35;16.75;;;15.65;;
9547;SDS011;4812;51.992;8.648;2022-07-29T09:21:05;16.95;;;15.85;;
9547;SDS011;4812;51.992;8.648;2022-07-29T09:24:03;16.95;;;15.85;;
9547;SDS011;4812;51.992;8.648;2022-07-29T09:26:33;17.48;;;16.10;;
9547;SDS011;4812;51.992;8.648;2022-07-29T09:29:07;16.85;;;15.75;;
9547;SDS011;4812;51.992;8.648;2022-07-29T09:31:37;17.00;;;15.80;;
9547;SDS011;4812;51.992;8.648;2022-07-29T09:34:05;17.20;;;16.00;;
9547;SDS011;4812;51.992;8.648;2022-07-29T09:36:38;17.02;;;15.90;;
9547;SDS011;4812;51.992;8.648;2022-07-29T09:39:08;16.60;;;15.43;;
9547;SDS011;4812;51.992;8.648;2022-07-29T09:41:45;17.02;;;15.93;;
9547;SDS011;4812;51.992;8.648;2022-07-29T09:44:14;17.30;;;16.13;;
9547;SDS011;4812;51.992;8.648;2022-07-29T09:46:52;17.20;;;16.05;;
9547;SDS011;4812;51.992;8.648;2022-07-29T09:49:21;17.70;;;16.40;;
9547;SDS011;4812;51.992;8.648;2022-07-29T09:51:58;17.30;;;16.00;;
9547;SDS011;4812;51.992;8.648;2022-07-29T09:54:28;17.70;;;16.17;;
9547;SDS011;4812;51.992;8.648;2022-07-29T09:57:02;16.33;;;15.25;;
9547;SDS011;4812;51.992;8.648;2022-07-29T09:59:31;16.67;;;15.65;;
9547;SDS011;4812;51.992;8.648;2022-07-29T10:01:59;16.92;;;15.70;;
9547;SDS011;4812;51.992;8.648;2022-07-29T10:04:36;16.73;;;15.63;;
9547;SDS011;4812;51.992;8.648;2022-07-29T10:07:06;17.15;;;15.90;;
9547;SDS011;4812;51.992;8.648;2022-07-29T10:09:35;16.52;;;15.43;;
9547;SDS011;4812;51.992;8.648;2022-07-29T10:12:06;17.13;;;16.02;;
9547;SDS011;4812;51.992;8.648;2022-07-29T10:14:35;17.10;;;15.90;;
9547;SDS011;4812;51.992;8.648;2022-07-29T10:17:04;16.48;;;15.32;;
9547;SDS011;4812;51.992;8.648;2022-07-29T10:19:32;16.77;;;15.38;;
9547;SDS011;4812;51.992;8.648;2022-07-29T10:22:01;16.08;;;15.07;;
9547;SDS011;4812;51.992;8.648;2022-07-29T10:24:31;16.60;;;15.40;;
9547;SDS011;4812;51.992;8.648;2022-07-29T10:27:01;16.10;;;15.07;;
9547;SDS011;4812;51.992;8.648;2022-07-29T10:29:29;16.58;;;15.32;;
9547;SDS011;4812;51.992;8.648;2022-07-29T10:32:02;16.00;;;14.82;;
9547;SDS011;4812;51.992;8.648;2022-07-29T10:34:44;16.55;;;15.55;;
9547;SDS011;4812;51.992;8.648;2022-07-29T10:37:22;16.60;;;15.60;;
9547;SDS011;4812;51.992;8.648;2022-07-29T10:40:03;16.90;;;15.70;;
9547;SDS011;4812;51.992;8.648;2022-07-29T10:42:54;16.95;;;15.85;;
9547;SDS011;4812;51.992;8.648;2022-07-29T10:45:22;17.15;;;15.95;;
9547;SDS011;4812;51.992;8.648;2022-07-29T10:48:02;16.75;;;15.55;;
9547;SDS011;4812;51.992;8.648;2022-07-29T10:53:23;16.65;;;15.52;;
9547;SDS011;4812;51.992;8.648;2022-07-29T10:55:59;16.52;;;15.32;;
9547;SDS011;4812;51.992;8.648;2022-07-29T10:58:32;17.92;;;16.55;;
9547;SDS011;4812;51.992;8.648;2022-07-29T11:01:00;17.30;;;16.20;;
9547;SDS011;4812;51.992;8.648;2022-07-29T11:04:02;17.67;;;16.13;;
9547;SDS011;4812;51.992;8.648;2022-07-29T11:09:42;16.40;;;15.20;;
9547;SDS011;4812;51.992;8.648;2022-07-29T11:15:15;17.08;;;15.75;;
9547;SDS011;4812;51.992;8.648;2022-07-29T11:18:03;16.80;;;15.75;;
9547;SDS011;4812;51.992;8.648;2022-07-29T11:20:41;16.77;;;15.68;;
9547;SDS011;4812;51.992;8.648;2022-07-29T11:23:20;16.95;;;15.48;;
9547;SDS011;4812;51.992;8.648;2022-07-29T11:26:18;16.88;;;15.68;;
9547;SDS011;4812;51.992;8.648;2022-07-29T11:28:51;16.73;;;15.30;;
9547;SDS011;4812;51.992;8.648;2022-07-29T11:31:38;17.33;;;16.08;;
9547;SDS011;4812;51.992;8.648;2022-07-29T11:34:18;17.33;;;16.10;;
9547;SDS011;4812;51.992;8.648;2022-07-29T11:42:52;17.02;;;15.82;;
9547;SDS011;4812;51.992;8.648;2022-07-29T11:45:27;18.23;;;16.77;;
9547;SDS011;4812;51.992;8.648;2022-07-29T11:48:17;16.65;;;15.50;;
9547;SDS011;4812;51.992;8.648;2022-07-29T11:50:58;17.10;;;15.98;;
9547;SDS011;4812;51.992;8.648;2022-07-29T11:53:26;16.25;;;15.25;;
9547;SDS011;4812;51.992;8.648;2022-07-29T11:55:58;16.08;;;14.98;;
9547;SDS011;4812;51.992;8.648;2022-07-29T11:58:28;16.58;;;15.57;;
9547;SDS011;4812;51.992;8.648;2022-07-29T12:00:56;17.08;;;15.80;;
9547;SDS011;4812;51.992;8.648;2022-07-29T12:03:31;16.83;;;15.60;;
9547;SDS011;4812;51.992;8.648;2022-07-29T12:06:02;16.50;;;15.20;;
9547;SDS011;4812;51.992;8.648;2022-07-29T12:08:38;17.05;;;15.95;;
9547;SDS011;4812;51.992;8.648;2022-07-29T12:11:14;17.02;;;15.82;;
9547;SDS011;4812;51.992;8.648;2022-07-29T12:13:46;17.05;;;15.80;;
9547;SDS011;4812;51.992;8.648;2022-07-29T12:16:15;17.17;;;16.00;;
9547;SDS011;4812;51.992;8.648;2022-07-29T12:18:56;16.63;;;15.52;;
9547;SDS011;4812;51.992;8.648;2022-07-29T12:21:24;16.85;;;15.65;;
9547;SDS011;4812;51.992;8.648;2022-07-29T12:23:56;16.90;;;15.63;;
9547;SDS011;4812;51.992;8.648;2022-07-29T12:26:34;16.55;;;15.35;;
9547;SDS011;4812;51.992;8.648;2022-07-29T12:29:02;16.63;;;15.63;;
9547;SDS011;4812;51.992;8.648;2022-07-29T12:31:45;17.25;;;16.00;;
9547;SDS011;4812;51.992;8.648;2022-07-29T12:34:15;17.15;;;16.05;;
9547;SDS011;4812;51.992;8.648;2022-07-29T12:36:43;17.20;;;15.98;;
9547;SDS011;4812;51.992;8.648;2022-07-29T12:39:10;17.60;;;16.30;;
9547;SDS011;4812;51.992;8.648;2022-07-29T12:41:38;17.40;;;16.13;;
9547;SDS011;4812;51.992;8.648;2022-07-29T12:44:06;16.63;;;15.52;;
9547;SDS011;4812;51.992;8.648;2022-07-29T12:46:33;17.75;;;16.38;;
9547;SDS011;4812;51.992;8.648;2022-07-29T12:49:01;16.60;;;15.30;;
9547;SDS011;4812;51.992;8.648;2022-07-29T12:51:31;17.58;;;16.20;;
9547;SDS011;4812;51.992;8.648;2022-07-29T12:54:04;17.77;;;16.35;;
9547;SDS011;4812;51.992;8.648;2022-07-29T12:56:34;16.98;;;15.73;;
9547;SDS011;4812;51.992;8.648;2022-07-29T12:59:11;16.80;;;15.80;;
9547;SDS011;4812;51.992;8.648;2022-07-29T13:01:40;16.85;;;15.55;;
9547;SDS011;4812;51.992;8.648;2022-07-29T13:04:07;17.25;;;15.95;;
9547;SDS011;4812;51.992;8.648;2022-07-29T13:06:38;16.70;;;15.55;;
9547;SDS011;4812;51.992;8.648;2022-07-29T13:09:12;16.48;;;15.35;;
9547;SDS011;4812;51.992;8.648;2022-07-29T13:11:41;16.70;;;15.10;;
9547;SDS011;4812;51.992;8.648;2022-07-29T13:14:14;16.80;;;15.52;;
9547;SDS011;4812;51.992;8.648;2022-07-29T13:17:01;16.33;;;15.43;;
9547;SDS011;4812;51.992;8.648;2022-07-29T13:19:32;17.17;;;15.95;;
9547;SDS011;4812;51.992;8.648;2022-07-29T13:22:05;17.10;;;15.93;;
9547;SDS011;4812;51.992;8.648;2022-07-29T13:24:33;17.10;;;16.00;;
9547;SDS011;4812;51.992;8.648;2022-07-29T13:27:00;16.75;;;15.68;;
9547;SDS011;4812;51.992;8.648;2022-07-29T13:29:31;17.80;;;16.50;;
9547;SDS011;4812;51.992;8.648;2022-07-29T13:31:59;16.63;;;15.52;;
9547;SDS011;4812;51.992;8.648;2022-07-29T13:34:26;16.65;;;15.45;;
9547;SDS011;4812;51.992;8.648;2022-07-29T13:36:54;17.13;;;15.77;;
9547;SDS011;4812;51.992;8.648;2022-07-29T13:39:23;16.73;;;15.63;;
9547;SDS011;4812;51.992;8.648;2022-07-29T13:41:51;18.30;;;16.77;;
9547;SDS011;4812;51.992;8.648;2022-07-29T13:44:18;16.95;;;15.63;;
9547;SDS011;4812;51.992;8.648;2022-07-29T13:46:46;16.75;;;15.65;;
9547;SDS011;4812;51.992;8.648;2022-07-29T13:49:13;17.25;;;16.05;;
9547;SDS011;4812;51.992;8.648;2022-07-29T13:51:41;17.42;;;16.13;;
9547;SDS011;4812;51.992;8.648;2022-07-29T13:54:09;17.13;;;15.93;;
9547;SDS011;4812;51.992;8.648;2022-07-29T13:56:37;17.80;;;16.52;;
9547;SDS011;4812;51.992;8.648;2022-07-29T13:59:05;17.33;;;15.98;;
9547;SDS011;4812;51.992;8.648;2022-07-29T14:01:33;16.98;;;15.70;;
9547;SDS011;4812;51.992;8.648;2022-07-29T14:04:01;17.23;;;16.02;;
9547;SDS011;4812;51.992;8.648;2022-07-29T14:06:29;17.10;;;16.00;;
9547;SDS011;4812;51.992;8.648;2022-07-29T14:08:56;17.63;;;16.33;;
9547;SDS011;4812;51.992;8.648;2022-07-29T14:11:26;17.13;;;15.88;;
9547;SDS011;4812;51.992;8.648;2022-07-29T14:13:55;18.35;;;16.50;;
9547;SDS011;4812;51.992;8.648;2022-07-29T14:16:23;18.15;;;16.70;;
9547;SDS011;4812;51.992;8.648;2022-07-29T14:18:50;16.40;;;15.30;;
9547;SDS011;4812;51.992;8.648;2022-07-29T14:21:18;17.38;;;16.00;;
9547;SDS011;4812;51.992;8.648;2022-07-29T14:23:45;16.48;;;15.43;;
9547;SDS011;4812;51.992;8.648;2022-07-29T14:26:14;16.83;;;15.68;;
9547;SDS011;4812;51.992;8.648;2022-07-29T14:28:49;17.17;;;15.57;;
9547;SDS011;4812;51.992;8.648;2022-07-29T14:31:18;16.60;;;15.50;;
9547;SDS011;4812;51.992;8.648;2022-07-29T14:33:46;17.20;;;15.90;;
9547;SDS011;4812;51.992;8.648;2022-07-29T14:36:14;16.85;;;15.65;;
9547;SDS011;4812;51.992;8.648;2022-07-29T14:38:42;17.30;;;16.00;;
9547;SDS011;4812;51.992;8.648;2022-07-29T14:41:10;17.30;;;15.90;;
9547;SDS011;4812;51.992;8.648;2022-07-29T14:43:37;16.85;;;15.77;;
9547;SDS011;4812;51.992;8.648;2022-07-29T14:46:06;17.13;;;15.88;;
9547;SDS011;4812;51.992;8.648;2022-07-29T14:48:35;17.40;;;16.02;;
9547;SDS011;4812;51.992;8.648;2022-07-29T14:51:03;17.63;;;16.20;;
9547;SDS011;4812;51.992;8.648;2022-07-29T14:53:31;16.85;;;15.85;;
9547;SDS011;4812;51.992;8.648;2022-07-29T14:55:59;18.00;;;16.63;;
9547;SDS011;4812;51.992;8.648;2022-07-29T14:58:47;17.45;;;15.98;;
9547;SDS011;4812;51.992;8.648;2022-07-29T15:01:17;17.42;;;16.33;;
9547;SDS011;4812;51.992;8.648;2022-07-29T15:03:46;17.25;;;15.95;;
9547;SDS011;4812;51.992;8.648;2022-07-29T15:06:14;17.33;;;16.10;;
9547;SDS011;4812;51.992;8.648;2022-07-29T15:08:42;16.60;;;15.60;;
9547;SDS011;4812;51.992;8.648;2022-07-29T15:11:09;17.70;;;16.17;;
9547;SDS011;4812;51.992;8.648;2022-07-29T15:13:37;16.75;;;15.65;;
9547;SDS011;4812;51.992;8.648;2022-07-29T15:16:05;17.42;;;15.93;;
9547;SDS011;4812;51.992;8.648;2022-07-29T15:18:33;16.20;;;14.88;;
9547;SDS011;4812;51.992;8.648;2022-07-29T15:21:05;15.25;;;13.95;;
9547;SDS011;4812;51.992;8.648;2022-07-29T15:23:33;14.70;;;13.70;;